Terminal Aerodrome Forecast
Issued by NWS

Home | Current Version | Previous Version | Graphics & Text | Print | Product List | Glossary On
Versions: 1 2 3 4 5 6 7 8 9 10 11 12 13 14 15 16 17 18 19 20 21
000
FTUS43 KICT 240520
TAFRSL
TAF
KRSL 240520Z 2406/2506 16013KT P6SM VCTS SCT025 OVC035CB
      TEMPO 2406/2409 5SM -TSRA BKN025CB
     FM240900 16009KT P6SM OVC008
     FM241100 16013KT 3SM BR OVC005
     FM241400 17013KT P6SM OVC008
     FM241600 19013KT P6SM OVC017=

USA.gov is the U.S. government's official web portal to all federal, state and local government web resources and services.